Time;durP1;ratioP1;P1;durP2;ratioP2;P2;SDS_P1;SDS_P2;PMS_P1;PMS_P2;Temp;Humidity;BMP_temperature;BMP_pressure;BME280_temperature;BME280_humidity;BME280_pressure;Samples;Min_cycle;Max_cycle;Signal;HPM_P1;HPM_P2
2021/11/15 00:02:00;;;;;;;3.17;2.47;;;10.10;71.40;;;;;;5050926;28;20495;-81
2021/11/15 00:04:26;;;;;;;5.17;3.40;;;10.10;71.60;;;;;;5080697;28;20032;-81
2021/11/15 00:06:52;;;;;;;6.10;4.30;;;10.20;71.60;;;;;;5080330;28;20038;-81
2021/11/15 00:09:18;;;;;;;5.17;3.70;;;10.20;71.60;;;;;;5067368;28;20036;-81
2021/11/15 00:11:44;;;;;;;9.03;5.73;;;10.20;71.60;;;;;;5052373;28;20437;-81
2021/11/15 00:14:10;;;;;;;10.60;6.70;;;10.20;71.80;;;;;;5073969;28;20092;-81
2021/11/15 00:16:36;;;;;;;11.57;7.47;;;10.20;71.80;;;;;;5062630;28;20062;-81
2021/11/15 00:19:02;;;;;;;8.37;5.50;;;10.20;71.80;;;;;;5082184;28;20085;-81
2021/11/15 00:21:28;;;;;;;6.47;4.60;;;10.20;71.70;;;;;;5083057;28;20028;-81
2021/11/15 00:23:54;;;;;;;6.60;4.30;;;10.10;71.80;;;;;;5067556;28;20399;-81
2021/11/15 00:26:20;;;;;;;7.90;3.20;;;10.10;72.00;;;;;;5068533;28;20028;-81
2021/11/15 00:28:46;;;;;;;5.63;3.87;;;10.20;71.90;;;;;;5095298;28;20059;-81
2021/11/15 00:31:12;;;;;;;5.47;3.67;;;10.10;71.60;;;;;;5066654;28;20067;-81
2021/11/15 00:33:38;;;;;;;6.27;3.70;;;10.20;71.70;;;;;;5042786;28;20123;-81
2021/11/15 00:36:04;;;;;;;4.87;2.90;;;10.10;71.60;;;;;;5053345;28;20109;-81
2021/11/15 00:38:30;;;;;;;4.20;3.13;;;10.20;71.70;;;;;;5070852;28;20043;-81
2021/11/15 00:40:55;;;;;;;4.20;3.27;;;10.20;71.70;;;;;;5068606;28;20111;-81
2021/11/15 00:43:21;;;;;;;5.27;3.60;;;10.20;71.70;;;;;;5065805;28;20028;-81
2021/11/15 00:45:47;;;;;;;3.43;2.77;;;10.20;71.70;;;;;;5049401;28;20533;-81
2021/11/15 00:48:13;;;;;;;4.60;3.13;;;10.20;71.80;;;;;;5075515;28;20068;-81
2021/11/15 00:50:40;;;;;;;4.87;3.50;;;10.20;71.80;;;;;;5091246;28;20035;-81
2021/11/15 00:53:07;;;;;;;5.23;3.90;;;10.20;71.70;;;;;;5049969;28;20032;-81
2021/11/15 00:55:34;;;;;;;6.20;3.87;;;10.20;71.50;;;;;;5060507;28;20024;-81
2021/11/15 00:58:00;;;;;;;4.27;3.43;;;10.10;71.40;;;;;;5058278;28;20031;-81
2021/11/15 01:00:28;;;;;;;5.47;3.60;;;10.10;71.30;;;;;;5063399;28;20025;-81
2021/11/15 01:02:56;;;;;;;3.87;3.10;;;10.10;71.40;;;;;;5059714;28;20028;-81
2021/11/15 01:05:23;;;;;;;5.40;2.90;;;10.10;71.30;;;;;;5083398;28;20024;-81
2021/11/15 01:07:49;;;;;;;3.30;2.60;;;10.20;71.20;;;;;;5076925;28;20048;-81
2021/11/15 01:10:18;;;;;;;3.40;2.50;;;10.20;70.90;;;;;;5047449;28;20052;-81
2021/11/15 01:12:44;;;;;;;4.23;2.93;;;10.20;70.90;;;;;;5055665;28;20036;-81
2021/11/15 01:15:13;;;;;;;5.30;2.70;;;10.20;71.00;;;;;;5057644;28;20027;-81
2021/11/15 01:17:40;;;;;;;4.10;2.90;;;10.20;71.00;;;;;;5063784;28;20031;-81
2021/11/15 01:20:09;;;;;;;3.97;2.53;;;10.20;71.00;;;;;;5069547;28;20395;-81
2021/11/15 01:22:35;;;;;;;8.40;2.97;;;10.20;71.00;;;;;;5075482;28;20062;-81
2021/11/15 01:25:02;;;;;;;3.23;2.37;;;10.20;70.90;;;;;;5051852;28;20405;-81
2021/11/15 01:27:27;;;;;;;3.60;2.53;;;10.10;71.10;;;;;;5071238;28;20044;-81
2021/11/15 01:29:53;;;;;;;2.90;2.13;;;10.10;71.20;;;;;;5069144;28;20238;-81
2021/11/15 01:32:19;;;;;;;3.00;2.13;;;10.10;71.20;;;;;;5060503;28;20035;-81
2021/11/15 01:34:45;;;;;;;3.10;2.13;;;10.10;71.20;;;;;;5076352;28;20109;-81
2021/11/15 01:37:12;;;;;;;3.40;2.07;;;10.10;71.20;;;;;;5083286;28;20036;-81
2021/11/15 01:39:38;;;;;;;3.93;3.07;;;10.00;71.20;;;;;;5070405;28;20746;-81
2021/11/15 01:42:04;;;;;;;3.40;2.47;;;10.00;71.30;;;;;;5058562;28;20110;-81
2021/11/15 01:44:30;;;;;;;3.43;2.73;;;10.00;71.20;;;;;;5068237;28;20020;-81
2021/11/15 01:46:57;;;;;;;2.83;2.27;;;10.00;71.10;;;;;;5049741;28;20421;-81
2021/11/15 01:49:23;;;;;;;3.47;3.00;;;10.00;71.10;;;;;;5054154;28;20123;-81
2021/11/15 01:51:48;;;;;;;4.30;2.77;;;10.00;71.10;;;;;;5058729;28;20115;-81
2021/11/15 01:54:15;;;;;;;3.80;2.87;;;10.10;71.20;;;;;;5071151;28;20036;-81
2021/11/15 01:56:41;;;;;;;4.30;2.60;;;10.00;71.10;;;;;;5067555;28;20039;-81
2021/11/15 01:59:07;;;;;;;5.30;2.70;;;10.00;71.00;;;;;;5054844;28;20055;-81
2021/11/15 02:01:33;;;;;;;4.87;2.80;;;10.00;71.30;;;;;;5066166;28;20025;-81
2021/11/15 02:03:59;;;;;;;4.33;2.87;;;10.00;71.10;;;;;;5075501;28;20024;-81
2021/11/15 02:06:26;;;;;;;3.80;2.90;;;10.00;71.20;;;;;;5053641;28;20127;-81
2021/11/15 02:08:52;;;;;;;3.20;2.50;;;10.10;71.40;;;;;;5047467;28;20024;-81
2021/11/15 02:11:18;;;;;;;4.90;2.20;;;10.20;70.90;;;;;;5080448;28;20043;-81
2021/11/15 02:13:46;;;;;;;4.87;2.60;;;10.20;71.00;;;;;;5068743;28;20032;-81
2021/11/15 02:16:13;;;;;;;3.50;2.80;;;10.20;70.90;;;;;;5050851;28;20033;-81
2021/11/15 02:18:39;;;;;;;4.27;2.93;;;10.30;70.90;;;;;;5061027;28;20028;-81
2021/11/15 02:21:07;;;;;;;2.83;2.20;;;10.40;70.60;;;;;;5059648;28;20085;-81
2021/11/15 02:23:42;;;;;;;3.00;2.50;;;10.30;70.70;;;;;;5060980;28;20020;-81
2021/11/15 02:26:10;;;;;;;3.07;2.37;;;10.30;70.70;;;;;;5084551;28;20378;-81
2021/11/15 02:28:40;;;;;;;3.53;2.57;;;10.40;70.40;;;;;;5069869;28;20488;-81
2021/11/15 02:31:08;;;;;;;3.13;2.07;;;10.40;70.30;;;;;;5062549;28;20103;-81
2021/11/15 02:33:34;;;;;;;3.13;2.13;;;10.30;70.00;;;;;;5086966;28;20031;-82
2021/11/15 02:36:02;;;;;;;4.10;2.07;;;10.40;69.90;;;;;;5052947;28;20024;-81
2021/11/15 02:38:29;;;;;;;2.80;2.10;;;10.30;69.90;;;;;;5058936;28;20032;-81
2021/11/15 02:40:54;;;;;;;3.37;2.53;;;10.30;69.90;;;;;;5069048;28;20028;-81
2021/11/15 02:43:21;;;;;;;4.90;2.03;;;10.30;69.80;;;;;;5058045;28;20036;-81
2021/11/15 02:45:47;;;;;;;2.90;2.30;;;10.20;69.80;;;;;;5058884;28;20036;-81
2021/11/15 02:48:17;;;;;;;3.43;2.70;;;10.20;69.70;;;;;;5047643;28;20024;-81
2021/11/15 02:50:43;;;;;;;3.40;2.40;;;10.10;69.80;;;;;;5063999;28;20474;-81
2021/11/15 02:53:09;;;;;;;2.80;2.00;;;10.10;69.70;;;;;;5046848;28;20079;-81
2021/11/15 02:55:36;;;;;;;2.33;1.93;;;10.10;69.80;;;;;;5055241;28;20056;-81
2021/11/15 02:58:04;;;;;;;2.40;1.77;;;10.10;69.80;;;;;;5056099;28;20417;-81
2021/11/15 03:00:39;;;;;;;3.90;2.23;;;10.10;69.80;;;;;;5082794;28;20025;-81
2021/11/15 03:03:06;;;;;;;3.87;1.77;;;10.10;69.60;;;;;;5075204;28;20074;-81
2021/11/15 03:05:35;;;;;;;2.53;1.87;;;10.10;69.60;;;;;;5060608;28;20021;-81
2021/11/15 03:08:03;;;;;;;2.93;1.77;;;10.10;69.40;;;;;;5081661;28;20035;-81
2021/11/15 03:10:29;;;;;;;2.90;2.10;;;10.00;69.40;;;;;;5077309;28;20036;-81
2021/11/15 03:12:56;;;;;;;3.50;1.80;;;10.00;69.50;;;;;;5054618;28;20113;-81
2021/11/15 03:15:32;;;;;;;3.50;2.30;;;10.00;69.40;;;;;;5064998;28;20382;-81
2021/11/15 03:18:07;;;;;;;2.63;2.10;;;9.90;69.80;;;;;;5064950;28;20024;-81
2021/11/15 03:20:37;;;;;;;2.93;1.90;;;9.90;69.70;;;;;;5071252;28;20125;-81
2021/11/15 03:23:11;;;;;;;3.33;2.17;;;9.90;69.60;;;;;;5060104;28;20028;-81
2021/11/15 03:25:37;;;;;;;3.33;2.00;;;9.90;69.70;;;;;;5067907;28;20554;-81
2021/11/15 03:28:04;;;;;;;2.90;2.07;;;9.80;69.80;;;;;;5079993;28;20441;-81
2021/11/15 03:30:30;;;;;;;3.27;2.00;;;9.90;69.90;;;;;;5060632;28;20040;-81
2021/11/15 03:32:56;;;;;;;3.03;2.07;;;9.90;69.80;;;;;;5077627;28;20016;-81
2021/11/15 03:35:22;;;;;;;2.83;2.33;;;9.90;69.80;;;;;;5056825;28;20386;-81
2021/11/15 03:37:48;;;;;;;3.10;2.80;;;9.80;69.80;;;;;;5045736;28;20074;-81
2021/11/15 03:40:20;;;;;;;6.80;4.27;;;9.80;69.90;;;;;;5078425;28;20028;-81
2021/11/15 03:42:48;;;;;;;9.10;6.47;;;9.80;70.10;;;;;;5056941;28;20036;-81
2021/11/15 03:45:15;;;;;;;6.73;3.77;;;9.70;70.50;;;;;;5089737;28;20526;-81
2021/11/15 03:47:42;;;;;;;8.90;5.13;;;9.80;70.70;;;;;;5088545;28;20383;-81
2021/11/15 03:50:09;;;;;;;5.57;4.10;;;9.70;70.60;;;;;;5039136;28;20029;-81
2021/11/15 03:52:36;;;;;;;4.97;2.73;;;9.80;70.70;;;;;;5053507;28;20040;-81
2021/11/15 03:55:04;;;;;;;3.57;2.60;;;9.80;70.60;;;;;;5069705;28;20108;-81
2021/11/15 03:57:30;;;;;;;4.30;3.30;;;9.70;70.30;;;;;;5050553;28;20028;-81
2021/11/15 03:59:56;;;;;;;3.83;2.83;;;9.80;70.40;;;;;;5074696;28;20032;-81
2021/11/15 04:02:26;;;;;;;3.83;2.50;;;9.80;70.30;;;;;;5055153;28;20032;-79
2021/11/15 04:04:56;;;;;;;2.73;2.13;;;9.80;70.30;;;;;;5067252;28;20032;-81
2021/11/15 04:07:32;;;;;;;3.33;2.53;;;9.70;70.20;;;;;;5079028;28;20556;-81
2021/11/15 04:10:00;;;;;;;3.20;2.77;;;9.80;70.20;;;;;;5077657;28;20467;-79
2021/11/15 04:12:28;;;;;;;4.30;3.27;;;9.80;70.10;;;;;;5073927;28;20052;-79
2021/11/15 04:14:54;;;;;;;4.23;2.90;;;9.70;70.20;;;;;;5059123;28;20379;-79
2021/11/15 04:17:21;;;;;;;4.37;3.50;;;9.70;70.20;;;;;;5058774;28;20032;-79
2021/11/15 04:19:48;;;;;;;4.27;3.17;;;9.80;70.30;;;;;;5055211;28;20068;-79
2021/11/15 04:22:14;;;;;;;4.37;3.53;;;9.70;70.30;;;;;;5055746;28;20535;-79
2021/11/15 04:24:40;;;;;;;4.40;2.93;;;9.80;70.20;;;;;;5075198;28;20021;-79
2021/11/15 04:27:06;;;;;;;5.90;2.87;;;9.80;70.20;;;;;;5061540;28;20098;-79
2021/11/15 04:29:33;;;;;;;3.17;2.67;;;9.70;69.90;;;;;;5070356;28;20032;-79
2021/11/15 04:31:58;;;;;;;4.00;2.83;;;9.60;70.00;;;;;;5056083;28;20334;-79
2021/11/15 04:34:24;;;;;;;4.07;2.87;;;9.60;70.30;;;;;;5078670;28;20093;-79
2021/11/15 04:36:50;;;;;;;3.57;2.80;;;9.70;70.40;;;;;;5059740;28;20037;-79
2021/11/15 04:39:16;;;;;;;3.07;2.67;;;9.70;70.20;;;;;;5066987;28;20539;-79
2021/11/15 04:41:41;;;;;;;5.77;2.60;;;9.70;70.10;;;;;;5082254;28;20106;-80
2021/11/15 04:44:07;;;;;;;2.97;2.53;;;9.70;69.90;;;;;;5043771;28;20137;-80
2021/11/15 04:46:33;;;;;;;4.20;2.80;;;9.70;70.00;;;;;;5053021;28;20025;-80
2021/11/15 04:48:59;;;;;;;3.73;2.57;;;9.70;70.00;;;;;;5074801;28;20025;-80
2021/11/15 04:51:25;;;;;;;4.20;2.80;;;9.70;70.00;;;;;;5049246;28;20044;-80
2021/11/15 04:53:50;;;;;;;6.33;2.93;;;9.70;69.80;;;;;;5053298;28;20081;-80
2021/11/15 04:56:16;;;;;;;3.53;2.80;;;9.70;69.80;;;;;;5054656;28;20036;-80
2021/11/15 04:58:42;;;;;;;3.17;2.27;;;9.70;69.80;;;;;;5069715;28;20508;-80
2021/11/15 05:01:08;;;;;;;4.27;3.13;;;9.70;69.60;;;;;;5068067;28;20025;-80
2021/11/15 05:03:35;;;;;;;3.50;2.70;;;9.70;69.50;;;;;;5054152;28;20029;-80
2021/11/15 05:06:02;;;;;;;4.10;3.10;;;9.70;69.40;;;;;;5074388;28;20020;-81
2021/11/15 05:08:28;;;;;;;3.57;2.90;;;9.70;69.40;;;;;;5075508;28;20027;-80
2021/11/15 05:10:54;;;;;;;4.20;3.63;;;9.70;69.40;;;;;;5065533;28;20031;-80
2021/11/15 05:13:19;;;;;;;4.20;2.90;;;9.70;69.60;;;;;;5073555;28;20039;-80
2021/11/15 05:15:45;;;;;;;3.57;2.60;;;9.70;69.70;;;;;;5048205;28;20024;-81
2021/11/15 05:18:11;;;;;;;4.33;2.80;;;9.70;69.80;;;;;;5067041;28;20100;-80
2021/11/15 05:20:37;;;;;;;5.07;2.87;;;9.70;69.80;;;;;;5079365;28;20100;-80
2021/11/15 05:23:03;;;;;;;5.97;3.70;;;9.70;69.80;;;;;;5073222;28;20029;-80
2021/11/15 05:25:29;;;;;;;3.83;3.07;;;9.70;69.80;;;;;;5068760;28;20029;-80
2021/11/15 05:27:55;;;;;;;5.80;3.17;;;9.70;69.80;;;;;;5055561;28;20040;-80
2021/11/15 05:30:22;;;;;;;3.80;2.90;;;9.70;70.00;;;;;;5056076;28;20119;-80
2021/11/15 05:32:51;;;;;;;4.53;3.27;;;9.70;69.80;;;;;;5082496;28;20546;-80
2021/11/15 05:35:18;;;;;;;3.70;2.83;;;9.60;69.80;;;;;;5059414;28;20043;-80
2021/11/15 05:37:44;;;;;;;3.53;2.73;;;9.70;70.10;;;;;;5078786;28;20063;-80
2021/11/15 05:40:12;;;;;;;5.30;3.07;;;9.70;69.70;;;;;;5082144;28;20081;-80
2021/11/15 05:42:37;;;;;;;6.73;3.53;;;9.70;69.70;;;;;;5079643;28;20030;-80
2021/11/15 05:45:04;;;;;;;5.73;3.60;;;9.70;69.70;;;;;;5081760;28;20020;-80
2021/11/15 05:47:30;;;;;;;3.77;3.20;;;9.70;69.90;;;;;;5076119;28;20020;-80
2021/11/15 05:49:56;;;;;;;4.43;3.50;;;9.70;69.90;;;;;;5079759;28;20030;-80
2021/11/15 05:52:23;;;;;;;5.83;4.13;;;9.70;70.10;;;;;;5076935;28;20020;-80
2021/11/15 05:54:49;;;;;;;4.37;3.40;;;9.70;70.30;;;;;;5045551;28;20033;-80
2021/11/15 05:57:15;;;;;;;6.33;4.30;;;9.70;70.10;;;;;;5054992;28;20581;-80
2021/11/15 05:59:41;;;;;;;14.73;9.37;;;9.70;70.40;;;;;;5066296;28;20120;-80
2021/11/15 06:02:06;;;;;;;11.57;8.70;;;9.70;70.20;;;;;;5055405;28;20059;-80
2021/11/15 06:04:32;;;;;;;12.97;8.30;;;9.70;70.20;;;;;;5060073;28;20032;-80
2021/11/15 06:06:58;;;;;;;9.03;6.53;;;9.70;70.40;;;;;;5046955;28;20025;-80
2021/11/15 06:09:23;;;;;;;5.97;4.73;;;9.70;70.40;;;;;;5060276;28;20029;-79
2021/11/15 06:11:49;;;;;;;6.70;4.53;;;9.70;70.70;;;;;;5061320;28;20055;-80
2021/11/15 06:14:15;;;;;;;6.47;4.37;;;9.80;70.20;;;;;;5059712;28;20032;-80
2021/11/15 06:16:41;;;;;;;5.40;3.70;;;9.80;70.10;;;;;;5051038;28;20499;-80
2021/11/15 06:19:06;;;;;;;4.70;3.43;;;9.80;70.30;;;;;;5065935;28;20067;-80
2021/11/15 06:21:32;;;;;;;8.17;4.20;;;9.90;70.40;;;;;;5071651;28;20089;-80
2021/11/15 06:23:59;;;;;;;7.40;4.90;;;9.80;70.10;;;;;;5037062;28;20487;-80
2021/11/15 06:26:25;;;;;;;6.57;3.70;;;9.80;70.10;;;;;;5041135;28;20041;-80
2021/11/15 06:28:50;;;;;;;9.60;5.37;;;9.80;70.00;;;;;;5045457;28;20115;-80
2021/11/15 06:31:16;;;;;;;5.67;3.87;;;9.90;69.70;;;;;;5054596;28;20024;-80
2021/11/15 06:33:48;;;;;;;5.00;3.97;;;9.80;69.70;;;;;;5062288;28;20691;-80
2021/11/15 06:36:15;;;;;;;6.28;3.40;;;9.70;69.80;;;;;;5035333;28;20028;-79
2021/11/15 06:38:41;;;;;;;7.77;3.47;;;9.60;69.80;;;;;;5034601;28;20060;-80
2021/11/15 06:41:06;;;;;;;10.30;4.40;;;9.60;70.10;;;;;;5066754;28;20116;-79
2021/11/15 06:43:32;;;;;;;8.37;5.27;;;9.70;69.90;;;;;;5053952;28;20020;-79
2021/11/15 06:45:58;;;;;;;7.20;4.83;;;9.70;69.50;;;;;;5053240;28;20024;-80
2021/11/15 06:48:23;;;;;;;14.93;5.70;;;9.70;69.60;;;;;;5057990;28;20021;-80
2021/11/15 06:50:50;;;;;;;20.97;6.77;;;9.70;69.40;;;;;;5073390;28;20518;-80
2021/11/15 06:53:16;;;;;;;21.73;7.63;;;9.60;69.30;;;;;;5056774;28;20052;-80
2021/11/15 06:55:43;;;;;;;17.37;7.23;;;9.60;69.30;;;;;;5074550;28;20430;-80
2021/11/15 06:58:08;;;;;;;20.97;8.43;;;9.60;69.40;;;;;;5076274;28;20029;-80
2021/11/15 07:00:34;;;;;;;9.63;5.33;;;9.60;69.50;;;;;;5045319;28;20159;-80
2021/11/15 07:03:00;;;;;;;8.33;4.93;;;9.50;69.60;;;;;;5075655;28;20078;-80
2021/11/15 07:05:26;;;;;;;7.17;4.43;;;9.50;69.60;;;;;;5057545;28;20044;-80
2021/11/15 07:07:53;;;;;;;8.50;5.10;;;9.50;69.60;;;;;;5056101;28;20021;-80
2021/11/15 07:10:20;;;;;;;6.23;4.37;;;9.60;70.00;;;;;;5052234;28;20120;-80
2021/11/15 07:12:46;;;;;;;8.73;5.17;;;9.70;69.70;;;;;;5071039;28;20133;-80
2021/11/15 07:15:14;;;;;;;9.03;5.30;;;9.70;69.60;;;;;;5051760;28;20025;-80
2021/11/15 07:17:40;;;;;;;7.40;5.17;;;9.70;69.50;;;;;;5069273;28;20032;-80
2021/11/15 07:20:07;;;;;;;7.57;5.73;;;9.70;69.30;;;;;;5072378;28;20028;-80
2021/11/15 07:22:33;;;;;;;11.87;5.67;;;9.70;69.20;;;;;;5056496;28;20052;-80
2021/11/15 07:25:00;;;;;;;9.30;5.60;;;9.70;69.30;;;;;;5064130;28;20455;-80
2021/11/15 07:27:26;;;;;;;7.93;5.77;;;9.70;69.30;;;;;;5071679;28;20052;-80
2021/11/15 07:29:52;;;;;;;7.67;4.93;;;9.80;69.30;;;;;;5054959;28;20478;-80
2021/11/15 07:32:18;;;;;;;10.00;6.60;;;9.80;69.30;;;;;;5051067;28;20123;-80
2021/11/15 07:34:44;;;;;;;10.57;6.53;;;9.80;69.20;;;;;;5040528;28;20090;-80
2021/11/15 07:37:10;;;;;;;9.73;6.50;;;9.80;69.00;;;;;;5067238;28;20528;-80
2021/11/15 07:39:44;;;;;;;9.60;7.30;;;9.80;69.20;;;;;;5050493;28;20103;-80
2021/11/15 07:42:14;;;;;;;9.60;6.20;;;9.90;69.20;;;;;;5053649;28;20514;-80
2021/11/15 07:44:41;;;;;;;8.47;6.20;;;9.90;69.10;;;;;;5072529;28;20077;-80
2021/11/15 07:47:07;;;;;;;8.63;5.13;;;9.90;69.10;;;;;;5075425;28;20020;-80
2021/11/15 07:49:33;;;;;;;10.63;6.47;;;10.00;69.30;;;;;;5080523;28;20028;-80
2021/11/15 07:52:00;;;;;;;6.70;4.83;;;10.00;69.10;;;;;;5043640;28;20028;-80
2021/11/15 07:54:27;;;;;;;9.50;5.30;;;10.00;68.90;;;;;;5055162;28;21791;-80
2021/11/15 07:56:53;;;;;;;7.73;4.70;;;10.10;69.00;;;;;;5051111;28;20032;-80
2021/11/15 07:59:19;;;;;;;6.97;5.50;;;10.10;69.10;;;;;;5052754;28;20348;-80
2021/11/15 08:01:45;;;;;;;7.50;5.23;;;10.10;68.90;;;;;;5070300;28;20071;-80
2021/11/15 08:04:10;;;;;;;7.90;5.30;;;10.20;68.90;;;;;;5073433;28;20031;-80
2021/11/15 08:06:36;;;;;;;6.67;5.10;;;10.10;68.60;;;;;;5070315;28;20048;-80
2021/11/15 08:09:03;;;;;;;6.87;5.20;;;10.20;68.80;;;;;;5069952;28;20048;-80
2021/11/15 08:11:31;;;;;;;8.53;5.90;;;10.20;68.70;;;;;;5054298;28;20052;-80
2021/11/15 08:13:57;;;;;;;8.90;5.50;;;10.20;68.70;;;;;;5084114;28;20052;-80
2021/11/15 08:16:22;;;;;;;9.23;6.70;;;10.20;68.80;;;;;;5070478;28;20025;-80
2021/11/15 08:18:48;;;;;;;8.90;7.27;;;10.30;68.80;;;;;;5067372;28;20437;-80
2021/11/15 08:21:14;;;;;;;14.10;8.70;;;10.30;68.60;;;;;;5051479;28;20029;-80
2021/11/15 08:23:42;;;;;;;9.90;7.73;;;10.30;68.80;;;;;;5049174;28;20104;-80
2021/11/15 08:41:22;;;;;;;9.67;7.13;;;10.30;68.80;;;;;;5087694;28;20056;-80
2021/11/15 08:43:49;;;;;;;10.30;6.97;;;10.30;68.70;;;;;;5045671;28;20025;-80
2021/11/15 08:46:15;;;;;;;11.37;7.63;;;10.40;68.70;;;;;;5049091;28;20021;-80
2021/11/15 08:48:43;;;;;;;8.83;7.00;;;10.40;68.60;;;;;;5026297;28;20096;-80
2021/11/15 08:51:12;;;;;;;8.90;6.30;;;10.40;68.60;;;;;;5031353;28;20032;-80
2021/11/15 08:53:38;;;;;;;10.63;7.37;;;10.40;68.60;;;;;;5047658;28;20547;-80
2021/11/15 08:56:05;;;;;;;8.97;6.50;;;10.40;68.60;;;;;;5027254;28;20025;-80
2021/11/15 08:58:30;;;;;;;8.90;7.37;;;10.50;68.50;;;;;;5059014;28;20496;-80
2021/11/15 09:00:57;;;;;;;8.40;6.60;;;10.60;68.40;;;;;;5048489;28;20165;-81
2021/11/15 09:03:22;;;;;;;8.87;5.97;;;10.60;68.30;;;;;;5021166;28;20110;-80
2021/11/15 09:05:50;;;;;;;9.07;6.23;;;10.60;68.40;;;;;;5047786;28;20067;-80
2021/11/15 09:08:17;;;;;;;9.00;6.33;;;10.70;68.40;;;;;;5031162;28;20469;-81
2021/11/15 09:10:43;;;;;;;9.17;7.07;;;10.80;67.80;;;;;;5032839;28;20025;-81
2021/11/15 09:13:10;;;;;;;10.37;6.17;;;10.80;67.80;;;;;;5025847;28;20029;-82
2021/11/15 09:15:36;;;;;;;8.27;6.50;;;10.80;67.80;;;;;;5049647;28;20021;-81
2021/11/15 09:18:02;;;;;;;11.10;6.23;;;10.80;67.90;;;;;;5069559;28;20027;-81
2021/11/15 09:20:28;;;;;;;8.23;6.50;;;10.90;67.80;;;;;;5037958;28;20056;-82
2021/11/15 09:22:53;;;;;;;8.13;6.43;;;10.90;67.60;;;;;;5054047;28;20330;-81
2021/11/15 09:25:19;;;;;;;6.90;6.00;;;10.90;67.50;;;;;;5035648;28;20024;-81
2021/11/15 09:27:45;;;;;;;7.33;6.43;;;10.90;67.90;;;;;;5047140;28;20025;-81
2021/11/15 09:30:12;;;;;;;8.77;6.77;;;10.80;67.50;;;;;;5035368;28;20107;-81
2021/11/15 09:32:40;;;;;;;16.43;6.73;;;10.70;67.50;;;;;;5026968;28;20032;-81
2021/11/15 09:35:07;;;;;;;8.97;6.63;;;10.80;67.80;;;;;;5024703;28;20032;-81
2021/11/15 09:37:32;;;;;;;9.13;6.30;;;10.80;67.80;;;;;;5031142;28;20660;-81
2021/11/15 09:39:58;;;;;;;6.97;5.37;;;10.90;67.70;;;;;;5040439;28;20040;-81
2021/11/15 09:42:24;;;;;;;7.93;6.53;;;11.00;67.80;;;;;;5037169;28;20044;-81
2021/11/15 09:44:50;;;;;;;7.80;6.57;;;11.10;67.60;;;;;;5085104;28;20021;-81
2021/11/15 09:47:16;;;;;;;8.53;6.13;;;11.20;67.30;;;;;;5054205;28;20054;-81
2021/11/15 09:49:43;;;;;;;7.43;5.83;;;11.30;67.00;;;;;;5055066;28;20085;-80
2021/11/15 09:52:09;;;;;;;7.93;5.93;;;11.30;67.10;;;;;;5048997;28;20055;-80
2021/11/15 09:54:36;;;;;;;10.00;6.13;;;11.30;66.90;;;;;;5061410;28;20461;-81
2021/11/15 09:57:02;;;;;;;9.27;6.43;;;11.30;66.80;;;;;;5042068;28;20121;-81
2021/11/15 09:59:29;;;;;;;8.87;5.33;;;11.30;67.00;;;;;;5079785;28;20053;-81
2021/11/15 10:01:57;;;;;;;7.30;5.53;;;11.50;66.80;;;;;;5058014;28;20108;-81
2021/11/15 10:04:23;;;;;;;8.53;6.40;;;11.50;66.70;;;;;;5065532;28;20547;-81
2021/11/15 10:06:53;;;;;;;7.80;6.30;;;11.50;66.50;;;;;;5069659;28;20384;-80
2021/11/15 10:09:27;;;;;;;9.60;6.80;;;11.50;66.30;;;;;;5050248;28;20024;-80
2021/11/15 10:11:54;;;;;;;7.87;6.17;;;11.40;66.40;;;;;;5051438;28;20032;-81
2021/11/15 10:14:20;;;;;;;8.10;5.43;;;11.30;66.50;;;;;;5072535;28;20024;-81
2021/11/15 10:16:55;;;;;;;8.47;5.73;;;11.20;66.50;;;;;;5070054;28;20044;-81
2021/11/15 10:19:22;;;;;;;6.93;5.63;;;11.20;66.80;;;;;;5066626;28;20017;-80
2021/11/15 10:21:54;;;;;;;7.87;6.33;;;11.20;66.70;;;;;;5039358;28;20368;-80
2021/11/15 10:24:31;;;;;;;11.70;6.30;;;11.20;66.80;;;;;;5053900;28;20025;-81
2021/11/15 10:27:05;;;;;;;6.70;5.67;;;11.20;66.70;;;;;;5047501;28;20340;-81
2021/11/15 10:29:33;;;;;;;7.27;5.30;;;11.10;66.90;;;;;;5070779;28;20375;-81
2021/11/15 10:32:02;;;;;;;7.90;5.67;;;11.20;67.00;;;;;;5050988;28;20028;-80
2021/11/15 10:34:31;;;;;;;8.03;5.80;;;11.20;67.20;;;;;;5043569;28;20057;-81
2021/11/15 10:37:05;;;;;;;8.53;5.50;;;11.60;67.10;;;;;;5051052;28;20036;-81
2021/11/15 10:39:42;;;;;;;4.87;4.37;;;12.00;66.40;;;;;;5073008;28;20120;-81
2021/11/15 10:42:21;;;;;;;6.73;5.37;;;12.50;65.60;;;;;;5059720;28;20049;-81
2021/11/15 10:44:51;;;;;;;7.07;4.53;;;12.80;64.70;;;;;;5050920;28;20032;-81
2021/11/15 10:47:22;;;;;;;5.87;4.50;;;13.10;64.00;;;;;;5071943;28;20052;-83
2021/11/15 10:49:48;;;;;;;6.33;4.50;;;13.30;63.50;;;;;;5069833;28;20036;-83
2021/11/15 10:52:16;;;;;;;7.10;5.37;;;13.40;62.80;;;;;;5070595;28;20119;-81
2021/11/15 10:57:22;;;;;;;5.70;4.53;;;13.60;62.30;;;;;;5070770;28;20039;-81
2021/11/15 11:00:11;;;;;;;5.68;4.43;;;13.80;61.70;;;;;;5070381;28;20487;-81
2021/11/15 11:02:53;;;;;;;6.28;4.25;;;13.80;61.50;;;;;;5042503;28;20029;-81
2021/11/15 11:05:22;;;;;;;6.03;4.72;;;13.90;61.30;;;;;;5066445;28;20063;-81
2021/11/15 11:07:50;;;;;;;5.13;3.72;;;14.10;60.90;;;;;;5067467;28;20051;-81
2021/11/15 11:10:19;;;;;;;5.90;4.72;;;14.20;60.40;;;;;;5066776;28;20451;-81
2021/11/15 11:12:56;;;;;;;8.02;5.20;;;14.40;59.80;;;;;;5040811;28;20033;-81
2021/11/15 11:15:43;;;;;;;5.32;3.88;;;14.40;59.40;;;;;;5057618;28;20056;-81
2021/11/15 11:26:33;;;;;;;6.50;4.53;;;14.50;58.90;;;;;;5071729;28;20112;-81
2021/11/15 11:29:16;;;;;;;5.72;4.40;;;14.50;59.20;;;;;;5070141;28;20081;-81
2021/11/15 11:31:45;;;;;;;6.15;4.80;;;14.60;59.00;;;;;;5061589;28;20384;-81
2021/11/15 11:34:12;;;;;;;5.78;4.55;;;14.60;58.60;;;;;;5060598;28;20040;-81
2021/11/15 11:36:39;;;;;;;6.50;4.68;;;14.60;58.50;;;;;;5071230;28;20403;-81
2021/11/15 11:39:11;;;;;;;6.15;4.82;;;14.70;58.10;;;;;;5071106;28;20115;-81
2021/11/15 11:41:50;;;;;;;5.70;4.00;;;14.70;58.00;;;;;;5064797;28;20029;-81
2021/11/15 11:44:17;;;;;;;7.85;5.00;;;14.80;57.80;;;;;;5072311;28;20021;-81
2021/11/15 11:46:43;;;;;;;4.55;4.03;;;14.90;57.60;;;;;;5053924;28;20028;-81
2021/11/15 11:49:17;;;;;;;6.68;4.68;;;14.90;57.40;;;;;;5068393;28;20408;-81
2021/11/15 11:51:43;;;;;;;6.05;5.30;;;15.00;57.20;;;;;;5046359;28;20436;-81
2021/11/15 11:54:15;;;;;;;5.13;4.30;;;15.00;57.00;;;;;;5066336;28;20399;-81
2021/11/15 11:56:42;;;;;;;9.68;5.00;;;15.00;57.00;;;;;;5050709;28;20068;-81
2021/11/15 11:59:14;;;;;;;5.28;4.18;;;15.00;57.10;;;;;;5070408;28;20063;-81
2021/11/15 12:01:41;;;;;;;5.70;4.65;;;15.00;56.90;;;;;;5057387;28;20024;-81
2021/11/15 12:04:11;;;;;;;5.40;4.47;;;15.00;56.90;;;;;;5055762;28;20120;-82
2021/11/15 12:06:38;;;;;;;5.85;4.82;;;15.00;56.80;;;;;;5073179;28;20103;-82
2021/11/15 12:09:04;;;;;;;7.18;4.30;;;15.00;56.60;;;;;;5056448;28;20568;-82
2021/11/15 12:11:43;;;;;;;6.43;4.53;;;14.90;56.70;;;;;;5073718;28;20033;-82
2021/11/15 12:14:11;;;;;;;4.68;4.05;;;14.90;56.80;;;;;;5048743;28;20029;-81
2021/11/15 12:17:12;;;;;;;6.55;4.05;;;14.80;56.80;;;;;;5056041;28;20115;-81
2021/11/15 12:20:05;;;;;;;4.82;4.03;;;14.80;56.70;;;;;;5039072;28;20088;-81
2021/11/15 12:22:41;;;;;;;;;;;14.70;56.80;;;;;;5046814;28;20072;-81
2021/11/15 12:25:16;;;;;;;5.88;4.18;;;14.60;57.30;;;;;;5056017;28;19908;-81
2021/11/15 12:27:52;;;;;;;5.45;4.43;;;14.60;57.20;;;;;;5036635;28;20021;-81
2021/11/15 12:30:24;;;;;;;6.18;3.97;;;14.60;57.40;;;;;;5054133;28;20033;-81
2021/11/15 12:33:18;;;;;;;5.80;4.60;;;14.60;57.40;;;;;;5065832;28;20029;-81
2021/11/15 12:36:09;;;;;;;5.35;4.20;;;14.70;57.40;;;;;;5064234;28;20048;-81
2021/11/15 12:38:40;;;;;;;5.68;4.30;;;14.60;57.40;;;;;;5049888;28;20036;-80
2021/11/15 12:41:18;;;;;;;5.38;4.05;;;14.60;57.50;;;;;;5056556;28;20407;-81
2021/11/15 12:43:49;;;;;;;6.00;4.20;;;14.50;57.80;;;;;;5071040;28;20090;-81
2021/11/15 12:46:18;;;;;;;7.20;4.35;;;14.60;57.90;;;;;;5051839;28;20064;-81
2021/11/15 12:48:48;;;;;;;6.18;4.65;;;14.60;57.60;;;;;;5054879;28;20032;-81
2021/11/15 12:51:23;;;;;;;5.50;4.05;;;14.50;57.50;;;;;;5052650;28;20393;-81
2021/11/15 12:53:51;;;;;;;8.98;4.15;;;14.50;57.50;;;;;;5036445;28;20028;-81
2021/11/15 12:56:23;;;;;;;4.05;3.40;;;14.50;57.50;;;;;;5054799;28;20106;-81
2021/11/15 12:58:51;;;;;;;5.88;4.63;;;14.50;57.60;;;;;;5054341;28;20488;-81
2021/11/15 13:01:20;;;;;;;5.93;4.32;;;14.50;57.50;;;;;;5059723;28;20095;-81
2021/11/15 13:03:53;;;;;;;9.57;4.35;;;14.50;57.50;;;;;;5051447;28;20052;-81
2021/11/15 13:06:22;;;;;;;8.40;4.82;;;14.50;57.50;;;;;;5065347;28;20021;-81
2021/11/15 13:08:49;;;;;;;5.07;4.40;;;14.40;57.80;;;;;;5061758;28;20475;-81
2021/11/15 13:11:20;;;;;;;6.18;4.40;;;14.40;58.40;;;;;;5066801;28;20471;-81
2021/11/15 13:13:46;;;;;;;6.40;4.60;;;14.40;57.90;;;;;;5077133;28;20017;-81
2021/11/15 13:16:12;;;;;;;8.60;4.85;;;14.40;58.00;;;;;;5055184;28;20616;-81
2021/11/15 13:18:41;;;;;;;9.00;4.10;;;14.40;57.90;;;;;;5067560;28;20032;-81
2021/11/15 13:21:11;;;;;;;6.35;3.85;;;14.40;58.00;;;;;;5067259;28;20048;-81